Time;durP1;ratioP1;P1;durP2;ratioP2;P2;SDS_P1;SDS_P2;PMS_P1;PMS_P2;Temp;Humidity;BMP_temperature;BMP_pressure;BME280_temperature;BME280_humidity;BME280_pressure;Samples;Min_cycle;Max_cycle;Signal;HPM_P1;HPM_P2
2022/09/19 00:00:38;;;;;;;0.50;0.50;;;11.70;99.90;;;;;;5016265;28;20573;-71
2022/09/19 00:03:04;;;;;;;0.30;0.30;;;;;;;;;;5016344;28;20497;-71
2022/09/19 00:05:30;;;;;;;0.30;0.30;;;11.60;99.90;;;;;;5017778;28;20394;-71
2022/09/19 00:07:56;;;;;;;0.57;0.57;;;11.50;99.90;;;;;;5017634;28;20538;-71
2022/09/19 00:10:22;;;;;;;0.30;0.30;;;;;;;;;;5017313;28;20195;-71
2022/09/19 00:12:48;;;;;;;0.30;0.30;;;;;;;;;;5017593;28;20176;-71
2022/09/19 00:15:14;;;;;;;0.30;0.30;;;;;;;;;;5017207;28;20197;-72
2022/09/19 00:17:40;;;;;;;0.50;0.50;;;11.60;99.90;;;;;;5017529;28;20449;-71
2022/09/19 00:20:06;;;;;;;0.30;0.30;;;11.40;99.90;;;;;;5017266;28;20945;-71
2022/09/19 00:22:32;;;;;;;0.30;0.30;;;11.60;99.90;;;;;;5017340;28;20399;-71
2022/09/19 00:24:58;;;;;;;0.30;0.30;;;11.60;99.90;;;;;;5017458;28;20659;-71
2022/09/19 00:27:25;;;;;;;0.40;0.40;;;11.50;95.30;;;;;;5017170;28;20417;-71
2022/09/19 00:29:53;;;;;;;0.33;0.33;;;11.20;99.90;;;;;;5016899;28;20194;-71
2022/09/19 00:32:21;;;;;;;0.40;0.40;;;11.20;99.90;;;;;;5017102;28;20413;-71
2022/09/19 00:34:49;;;;;;;0.40;0.40;;;11.60;99.90;;;;;;5017281;28;20183;-71
2022/09/19 00:37:17;;;;;;;0.30;0.30;;;11.30;99.90;;;;;;5016976;28;20195;-71
2022/09/19 00:39:43;;;;;;;0.40;0.40;;;11.20;99.90;;;;;;5016728;28;20195;-71
2022/09/19 00:42:18;;;;;;;0.50;0.50;;;11.60;99.90;;;;;;5017064;28;20170;-71
2022/09/19 00:44:45;;;;;;;0.40;0.40;;;;;;;;;;5016817;28;20749;-72
2022/09/19 00:47:14;;;;;;;0.50;0.50;;;11.30;95.70;;;;;;5016882;28;20163;-71
2022/09/19 00:49:46;;;;;;;0.30;0.30;;;10.90;99.90;;;;;;5016643;28;20218;-71
2022/09/19 00:52:18;;;;;;;0.40;0.40;;;11.20;99.90;;;;;;5016776;28;20195;-71
2022/09/19 00:54:46;;;;;;;0.30;0.30;;;11.00;99.90;;;;;;5016855;28;20176;-72
2022/09/19 00:57:15;;;;;;;0.30;0.30;;;11.30;99.90;;;;;;5016536;28;20200;-71
2022/09/19 00:59:44;;;;;;;0.30;0.30;;;11.10;99.90;;;;;;5016300;28;20238;-71
2022/09/19 01:02:10;;;;;;;0.30;0.30;;;10.90;99.90;;;;;;5016606;28;20535;-71
2022/09/19 01:04:36;;;;;;;0.30;0.30;;;;;;;;;;5016455;28;20171;-71
2022/09/19 01:07:18;;;;;;;0.30;0.30;;;10.70;99.90;;;;;;5016624;28;20179;-71
2022/09/19 01:10:03;;;;;;;0.30;0.30;;;10.20;99.90;;;;;;5016197;28;20191;-71
2022/09/19 01:13:11;;;;;;;0.30;0.30;;;10.20;99.90;;;;;;5015449;28;20176;-71
2022/09/19 01:15:49;;;;;;;0.30;0.30;;;10.30;95.90;;;;;;5016155;28;20187;-72
2022/09/19 01:18:17;;;;;;;0.40;0.40;;;10.40;99.90;;;;;;5016246;28;20663;-72
2022/09/19 01:24:22;;;;;;;0.60;0.50;;;10.10;99.90;;;;;;5016311;28;20182;-71
2022/09/19 01:27:00;;;;;;;0.30;0.30;;;10.20;99.90;;;;;;5016311;28;20190;-71
2022/09/19 01:29:36;;;;;;;0.30;0.30;;;10.20;99.90;;;;;;5016110;28;20245;-71
2022/09/19 01:32:08;;;;;;;0.60;0.60;;;10.70;99.90;;;;;;5016208;28;20171;-71
2022/09/19 01:34:42;;;;;;;0.30;0.30;;;10.50;99.90;;;;;;5016139;28;20179;-71
2022/09/19 01:37:16;;;;;;;0.30;0.30;;;10.50;99.20;;;;;;5015893;28;20207;-71
2022/09/19 01:39:46;;;;;;;0.30;0.30;;;10.50;99.10;;;;;;5015583;28;20187;-71
2022/09/19 01:42:18;;;;;;;0.30;0.30;;;10.50;99.90;;;;;;5016090;28;20263;-71
2022/09/19 01:44:44;;;;;;;0.30;0.30;;;;;;;;;;5015918;28;20174;-71
2022/09/19 01:47:40;;;;;;;0.30;0.30;;;10.70;99.90;;;;;;5015652;28;20226;-71
2022/09/19 01:50:15;;;;;;;0.85;0.85;;;10.80;99.90;;;;;;5015547;28;20191;-71
2022/09/19 01:52:49;;;;;;;0.40;0.40;;;10.80;99.90;;;;;;5015869;28;20167;-71
2022/09/19 01:55:30;;;;;;;0.30;0.30;;;9.80;99.90;;;;;;5015709;28;20168;-71
2022/09/19 01:58:34;;;;;;;0.40;0.40;;;10.60;99.90;;;;;;5015688;28;20549;-71
2022/09/19 02:01:23;;;;;;;0.40;0.40;;;10.60;99.90;;;;;;5013562;28;20194;-71
2022/09/19 02:03:53;;;;;;;0.40;0.30;;;10.90;99.90;;;;;;5015398;28;20164;-71
2022/09/19 02:06:37;;;;;;;0.30;0.30;;;10.70;99.90;;;;;;5015412;28;20187;-71
2022/09/19 02:09:03;;;;;;;0.50;0.50;;;10.70;99.90;;;;;;5015609;28;20270;-72
2022/09/19 02:11:30;;;;;;;0.30;0.30;;;10.70;99.90;;;;;;5015695;28;20178;-71
2022/09/19 02:14:10;;;;;;;0.40;0.40;;;10.70;99.90;;;;;;5015130;28;20552;-71
2022/09/19 02:16:46;;;;;;;0.30;0.30;;;10.70;99.90;;;;;;5015342;28;20221;-72
2022/09/19 02:19:23;;;;;;;0.68;0.40;;;10.60;99.90;;;;;;5015202;28;20188;-71
2022/09/19 02:21:55;;;;;;;0.30;0.30;;;10.60;99.90;;;;;;5014874;28;20178;-71
2022/09/19 02:24:27;;;;;;;0.30;0.30;;;10.80;99.50;;;;;;5015207;28;20530;-71
2022/09/19 02:26:56;;;;;;;0.30;0.30;;;10.80;99.70;;;;;;5014986;28;20651;-71
2022/09/19 02:29:30;;;;;;;0.60;0.60;;;10.80;99.90;;;;;;5015005;28;20200;-71
2022/09/19 02:31:56;;;;;;;0.30;0.30;;;10.60;99.90;;;;;;5014879;28;20630;-71
2022/09/19 02:34:22;;;;;;;0.40;0.40;;;11.00;99.90;;;;;;5014983;28;20172;-71
2022/09/19 02:37:01;;;;;;;0.40;0.40;;;10.80;99.90;;;;;;5014788;28;20203;-71
2022/09/19 02:39:33;;;;;;;0.40;0.40;;;10.80;99.90;;;;;;5014672;28;20191;-71
2022/09/19 02:42:08;;;;;;;0.30;0.30;;;10.40;99.90;;;;;;5014962;28;20168;-72
2022/09/19 02:44:36;;;;;;;0.30;0.30;;;;;;;;;;5014796;28;20206;-71
2022/09/19 02:47:21;;;;;;;0.77;0.50;;;10.50;99.90;;;;;;5014744;28;20258;-71
2022/09/19 02:50:10;;;;;;;0.40;0.40;;;10.50;99.90;;;;;;5014465;28;20203;-71
2022/09/19 02:52:37;;;;;;;0.50;0.50;;;10.80;99.90;;;;;;5014750;28;20178;-71
2022/09/19 02:55:05;;;;;;;0.40;0.40;;;10.70;99.90;;;;;;5014590;28;20180;-71
2022/09/19 02:57:33;;;;;;;0.40;0.40;;;10.60;99.90;;;;;;5014501;28;20214;-71
2022/09/19 03:00:02;;;;;;;0.60;0.60;;;10.10;99.90;;;;;;5014098;28;20202;-71
2022/09/19 03:02:41;;;;;;;0.30;0.30;;;10.40;99.90;;;;;;5014208;28;20600;-71
2022/09/19 03:05:13;;;;;;;0.40;0.40;;;10.00;99.90;;;;;;5014526;28;20179;-71
2022/09/19 03:07:49;;;;;;;0.50;0.50;;;10.10;99.90;;;;;;5014586;28;20636;-71
2022/09/19 03:10:22;;;;;;;0.50;0.50;;;10.00;99.90;;;;;;5014251;28;20195;-71
2022/09/19 03:13:00;;;;;;;0.30;0.30;;;10.20;99.90;;;;;;5014065;28;20242;-71
2022/09/19 03:15:47;;;;;;;0.95;0.95;;;10.10;99.90;;;;;;5014125;28;20571;-71
2022/09/19 03:18:16;;;;;;;0.40;0.40;;;9.70;99.90;;;;;;5014108;28;20199;-71
2022/09/19 03:20:49;;;;;;;0.30;0.30;;;10.10;99.90;;;;;;5010739;28;20733;-71
2022/09/19 03:23:23;;;;;;;0.40;0.40;;;10.10;99.90;;;;;;5014087;28;20538;-71
2022/09/19 03:25:50;;;;;;;0.30;0.30;;;10.40;99.90;;;;;;5013815;28;20171;-71
2022/09/19 03:28:19;;;;;;;0.30;0.30;;;10.60;99.90;;;;;;5014230;28;20172;-71
2022/09/19 03:30:46;;;;;;;0.40;0.40;;;10.60;99.90;;;;;;5013697;28;20199;-71
2022/09/19 03:33:15;;;;;;;0.30;0.30;;;10.60;99.90;;;;;;5013726;28;20262;-71
2022/09/19 03:35:42;;;;;;;0.45;0.45;;;10.60;99.90;;;;;;5013295;28;20203;-71
2022/09/19 03:38:08;;;;;;;1.98;1.23;;;10.30;99.90;;;;;;5011796;28;20195;-71
2022/09/19 03:40:34;;;;;;;0.30;0.30;;;;;;;;;;5012085;28;20303;-71
2022/09/19 03:43:01;;;;;;;1.85;0.77;;;;;;;;;;5012862;28;20206;-71
2022/09/19 03:45:26;;;;;;;0.32;0.32;;;10.40;99.90;;;;;;5011683;28;20310;-72
2022/09/19 03:47:52;;;;;;;0.30;0.30;;;10.40;99.90;;;;;;5013777;28;20258;-71
2022/09/19 03:50:18;;;;;;;0.30;0.30;;;10.50;99.90;;;;;;5013847;28;20299;-71
2022/09/19 03:52:47;;;;;;;0.30;0.30;;;10.60;99.90;;;;;;5014017;28;20371;-71
2022/09/19 03:55:13;;;;;;;0.40;0.40;;;10.60;99.90;;;;;;5014093;28;20194;-70
2022/09/19 03:57:39;;;;;;;0.60;0.60;;;10.50;99.90;;;;;;5014008;28;20254;-71
2022/09/19 04:00:06;;;;;;;0.40;0.40;;;10.50;99.90;;;;;;5013492;28;20643;-70
2022/09/19 04:02:32;;;;;;;0.50;0.50;;;10.50;99.90;;;;;;5013981;28;20254;-71
2022/09/19 04:04:58;;;;;;;1.48;0.65;;;10.50;99.90;;;;;;5012516;28;20569;-72
2022/09/19 04:07:27;;;;;;;0.30;0.30;;;10.50;99.90;;;;;;5013902;28;20530;-70
2022/09/19 04:09:54;;;;;;;0.50;0.45;;;10.50;99.90;;;;;;5013685;28;20282;-72
2022/09/19 04:12:21;;;;;;;0.30;0.30;;;10.60;99.90;;;;;;5013893;28;20704;-71
2022/09/19 04:14:47;;;;;;;0.38;0.38;;;10.50;99.90;;;;;;5013681;28;20199;-72
2022/09/19 04:17:13;;;;;;;0.30;0.30;;;10.70;99.90;;;;;;5013816;28;20216;-72
2022/09/19 04:19:40;;;;;;;0.30;0.30;;;10.50;99.90;;;;;;5013657;28;20194;-70
2022/09/19 04:22:06;;;;;;;0.30;0.30;;;10.50;99.90;;;;;;5013781;28;20172;-71
2022/09/19 04:24:31;;;;;;;0.40;0.40;;;10.70;99.90;;;;;;5013924;28;20217;-71
2022/09/19 04:26:59;;;;;;;0.30;0.30;;;10.70;99.90;;;;;;5014039;28;20403;-71
2022/09/19 04:29:27;;;;;;;0.30;0.30;;;10.50;99.90;;;;;;5013712;28;20238;-71
2022/09/19 04:31:54;;;;;;;0.45;0.45;;;10.40;99.90;;;;;;5013328;28;20230;-71
2022/09/19 04:34:20;;;;;;;0.30;0.30;;;10.10;99.90;;;;;;5010606;28;20171;-70
2022/09/19 04:36:48;;;;;;;0.30;0.30;;;;;;;;;;5012155;28;20311;-71
2022/09/19 04:39:14;;;;;;;0.40;0.40;;;10.00;99.90;;;;;;5012512;28;20451;-71
2022/09/19 04:41:40;;;;;;;0.40;0.40;;;10.10;99.90;;;;;;5012550;28;20175;-71
2022/09/19 04:44:10;;;;;;;0.75;0.75;;;10.30;99.90;;;;;;5012170;28;20294;-71
2022/09/19 04:46:41;;;;;;;0.30;0.30;;;10.30;99.90;;;;;;5013196;28;20175;-71
2022/09/19 04:49:07;;;;;;;0.50;0.40;;;;;;;;;;5016086;28;20191;-70
2022/09/19 04:51:33;;;;;;;0.30;0.30;;;10.20;99.90;;;;;;5016075;28;20175;-70
2022/09/19 04:54:00;;;;;;;0.30;0.30;;;10.40;99.90;;;;;;5016316;28;20179;-71
2022/09/19 04:56:26;;;;;;;1.35;1.15;;;10.20;99.90;;;;;;5016116;28;20203;-70
2022/09/19 04:58:52;;;;;;;0.40;0.40;;;10.50;99.90;;;;;;5015355;28;20195;-70
2022/09/19 05:01:18;;;;;;;0.90;0.90;;;;;;;;;;5014294;28;20195;-71
2022/09/19 05:03:44;;;;;;;0.30;0.30;;;;;;;;;;5016586;28;20691;-70
2022/09/19 05:06:13;;;;;;;0.30;0.30;;;10.50;99.90;;;;;;5015605;28;20171;-72
2022/09/19 05:08:40;;;;;;;0.43;0.43;;;10.60;99.90;;;;;;5015633;28;20172;-72
2022/09/19 05:11:07;;;;;;;0.30;0.30;;;10.20;99.90;;;;;;5016296;28;20222;-71
2022/09/19 05:13:37;;;;;;;0.40;0.40;;;10.60;99.90;;;;;;5013836;28;20516;-71
2022/09/19 05:16:04;;;;;;;0.30;0.30;;;11.00;99.90;;;;;;5013820;28;20675;-71
2022/09/19 05:18:35;;;;;;;0.40;0.40;;;10.50;99.90;;;;;;5016029;28;20176;-71
2022/09/19 05:21:06;;;;;;;0.65;0.57;;;10.50;99.90;;;;;;5015708;28;20206;-71
2022/09/19 05:23:32;;;;;;;0.30;0.30;;;10.50;99.90;;;;;;5016323;28;20530;-71
2022/09/19 05:26:06;;;;;;;0.30;0.30;;;10.20;99.90;;;;;;5016149;28;20677;-71
2022/09/19 05:28:32;;;;;;;0.40;0.40;;;10.30;99.90;;;;;;5016141;28;20517;-72
2022/09/19 05:30:59;;;;;;;1.50;0.82;;;;;;;;;;5015936;28;20168;-72
2022/09/19 05:33:28;;;;;;;0.30;0.30;;;10.00;99.90;;;;;;5016167;28;20187;-72
2022/09/19 05:36:00;;;;;;;0.50;0.50;;;10.30;99.90;;;;;;5014510;28;20222;-71
2022/09/19 05:38:27;;;;;;;0.30;0.30;;;10.30;99.90;;;;;;5015407;28;20554;-71
2022/09/19 05:40:54;;;;;;;0.40;0.40;;;10.30;99.90;;;;;;5014468;28;20198;-72
2022/09/19 05:43:19;;;;;;;0.40;0.40;;;10.40;99.90;;;;;;5015507;28;20257;-71
2022/09/19 05:45:46;;;;;;;0.30;0.30;;;10.50;99.90;;;;;;5016266;28;20250;-71
2022/09/19 05:48:13;;;;;;;0.40;0.40;;;10.10;99.90;;;;;;5016139;28;20218;-71
2022/09/19 05:50:38;;;;;;;0.30;0.30;;;10.90;99.90;;;;;;5015579;28;20191;-72
2022/09/19 05:55:49;;;;;;;0.68;0.68;;;;;;;;;;5016126;28;20221;-71
2022/09/19 05:58:17;;;;;;;0.40;0.40;;;10.40;99.90;;;;;;5015279;28;20660;-71
2022/09/19 06:00:43;;;;;;;0.30;0.30;;;10.30;99.90;;;;;;5015381;28;20472;-71
2022/09/19 06:03:13;;;;;;;2.28;1.75;;;10.10;99.90;;;;;;5016077;28;20174;-71
2022/09/19 06:05:43;;;;;;;0.30;0.30;;;10.10;99.90;;;;;;5015747;28;20642;-71
2022/09/19 06:08:08;;;;;;;0.30;0.30;;;9.80;99.90;;;;;;5015669;28;20175;-71
2022/09/19 06:10:39;;;;;;;0.40;0.40;;;9.70;99.90;;;;;;5015200;28;20563;-71
2022/09/19 06:13:06;;;;;;;0.30;0.30;;;9.60;99.90;;;;;;5014623;28;20258;-71
2022/09/19 06:15:33;;;;;;;0.38;0.38;;;9.50;99.90;;;;;;5013518;28;20209;-71
2022/09/19 06:17:59;;;;;;;0.40;0.40;;;9.40;99.90;;;;;;5013945;28;20257;-71
2022/09/19 06:20:25;;;;;;;0.30;0.30;;;9.50;99.90;;;;;;5013065;28;20573;-72
2022/09/19 06:23:02;;;;;;;1.15;1.15;;;9.50;99.90;;;;;;5014662;28;20200;-71
2022/09/19 06:25:32;;;;;;;0.40;0.40;;;9.50;99.90;;;;;;5015164;28;20259;-71
2022/09/19 06:28:00;;;;;;;0.30;0.30;;;9.50;99.90;;;;;;5015012;28;20174;-71
2022/09/19 06:30:27;;;;;;;1.45;0.60;;;9.50;99.90;;;;;;5014628;28;20226;-71
2022/09/19 06:32:53;;;;;;;0.40;0.40;;;9.50;99.90;;;;;;5014892;28;20176;-71
2022/09/19 06:35:20;;;;;;;0.40;0.40;;;9.70;99.90;;;;;;5014918;28;20667;-71
2022/09/19 06:37:47;;;;;;;0.40;0.40;;;9.80;99.90;;;;;;5013553;28;20203;-71
2022/09/19 06:40:13;;;;;;;0.40;0.40;;;10.00;99.90;;;;;;5014575;28;20199;-71
2022/09/19 06:42:40;;;;;;;0.40;0.40;;;10.20;99.90;;;;;;5014557;28;20169;-70
2022/09/19 06:45:07;;;;;;;0.30;0.30;;;10.30;99.60;;;;;;5013549;28;20174;-71
2022/09/19 06:47:33;;;;;;;0.40;0.40;;;10.50;98.80;;;;;;5010683;28;20660;-71
2022/09/19 06:50:02;;;;;;;0.30;0.30;;;10.70;98.80;;;;;;5012952;28;20202;-70
2022/09/19 06:52:28;;;;;;;0.50;0.50;;;10.80;97.10;;;;;;5012855;28;20179;-70
2022/09/19 06:54:54;;;;;;;0.68;0.68;;;10.90;95.50;;;;;;5013285;28;20180;-70
2022/09/19 06:57:20;;;;;;;0.40;0.40;;;11.20;97.30;;;;;;5014210;28;20198;-70
2022/09/19 06:59:46;;;;;;;0.30;0.30;;;11.40;95.80;;;;;;5014142;28;20195;-70
2022/09/19 07:02:13;;;;;;;0.30;0.30;;;11.60;94.70;;;;;;5014557;28;20175;-70
2022/09/19 07:04:39;;;;;;;0.40;0.40;;;11.60;94.30;;;;;;5014503;28;20299;-71
2022/09/19 07:07:05;;;;;;;0.40;0.40;;;11.70;93.90;;;;;;5014361;28;20878;-70
2022/09/19 07:09:31;;;;;;;0.30;0.30;;;11.80;95.50;;;;;;5013261;28;20224;-71
2022/09/19 07:11:57;;;;;;;0.40;0.40;;;12.10;95.00;;;;;;5014171;28;20411;-70
2022/09/19 07:14:25;;;;;;;0.30;0.30;;;12.60;94.40;;;;;;5013974;28;20431;-71
2022/09/19 07:16:51;;;;;;;0.30;0.30;;;13.80;93.80;;;;;;5014052;28;20460;-70
2022/09/19 07:19:17;;;;;;;0.80;0.40;;;14.50;88.10;;;;;;5014214;28;20499;-70
2022/09/19 07:21:43;;;;;;;0.40;0.40;;;14.70;88.50;;;;;;5013958;28;20576;-71
2022/09/19 07:24:09;;;;;;;0.30;0.30;;;14.60;85.80;;;;;;5014248;28;20176;-70
2022/09/19 07:26:35;;;;;;;0.30;0.30;;;14.50;83.40;;;;;;5014078;28;20425;-71
2022/09/19 07:29:00;;;;;;;0.30;0.30;;;14.80;86.70;;;;;;5014089;28;20430;-71
2022/09/19 07:31:27;;;;;;;0.30;0.30;;;15.30;83.30;;;;;;5013843;28;20440;-71
2022/09/19 07:33:53;;;;;;;0.30;0.30;;;16.20;85.00;;;;;;5012788;28;20236;-71
2022/09/19 07:36:21;;;;;;;0.40;0.40;;;17.10;84.40;;;;;;5013949;28;20442;-71
2022/09/19 07:38:48;;;;;;;0.40;0.40;;;17.60;79.10;;;;;;5013984;28;20474;-71
2022/09/19 07:41:14;;;;;;;0.40;0.40;;;18.20;78.60;;;;;;5013613;28;20874;-71
2022/09/19 07:43:40;;;;;;;0.30;0.30;;;18.80;76.70;;;;;;5014004;28;20930;-71
2022/09/19 07:46:06;;;;;;;0.60;0.60;;;18.70;72.30;;;;;;5014144;28;20414;-71
2022/09/19 07:48:31;;;;;;;0.30;0.30;;;17.50;74.70;;;;;;5013794;28;20258;-71
2022/09/19 07:50:57;;;;;;;0.47;0.47;;;17.70;72.60;;;;;;5013518;28;20254;-71
2022/09/19 07:53:23;;;;;;;0.30;0.30;;;17.10;75.40;;;;;;5013708;28;20183;-70
2022/09/19 07:55:55;;;;;;;0.40;0.40;;;16.60;75.40;;;;;;5013852;28;20414;-71
2022/09/19 07:58:22;;;;;;;0.43;0.43;;;16.10;75.50;;;;;;5013808;28;20481;-71
2022/09/19 08:00:49;;;;;;;0.30;0.30;;;15.70;75.90;;;;;;5012335;28;20493;-70
2022/09/19 08:03:17;;;;;;;0.50;0.50;;;15.50;72.60;;;;;;5013695;28;20410;-71
2022/09/19 08:05:46;;;;;;;0.50;0.50;;;15.10;72.00;;;;;;5012458;28;20413;-70
2022/09/19 08:08:13;;;;;;;7.00;1.57;;;14.80;79.70;;;;;;5013518;28;20783;-71
2022/09/19 08:10:40;;;;;;;1.70;0.47;;;14.50;77.90;;;;;;5013262;28;20434;-70
2022/09/19 08:13:08;;;;;;;1.13;1.03;;;14.50;79.60;;;;;;5013840;28;20422;-71
2022/09/19 08:15:35;;;;;;;0.30;0.30;;;14.40;77.10;;;;;;5013398;28;20442;-71
2022/09/19 08:18:06;;;;;;;0.77;0.73;;;14.50;73.00;;;;;;5013445;28;20466;-70
2022/09/19 08:20:36;;;;;;;0.40;0.40;;;15.00;73.60;;;;;;5014258;28;20445;-71
2022/09/19 08:23:05;;;;;;;0.30;0.30;;;16.10;74.40;;;;;;5017306;28;20410;-71
2022/09/19 08:25:33;;;;;;;0.50;0.40;;;17.10;67.40;;;;;;5017251;28;20402;-71
2022/09/19 08:28:03;;;;;;;0.30;0.30;;;18.00;61.70;;;;;;5017305;28;20434;-71
2022/09/19 08:30:29;;;;;;;0.30;0.30;;;18.50;54.80;;;;;;5016961;28;20436;-71
2022/09/19 08:32:56;;;;;;;0.30;0.30;;;19.30;55.70;;;;;;5017250;28;20413;-72
2022/09/19 08:35:22;;;;;;;0.30;0.30;;;20.30;53.20;;;;;;5017228;28;20850;-72
2022/09/19 08:37:54;;;;;;;0.50;0.50;;;20.80;49.70;;;;;;5016830;28;20439;-72
2022/09/19 08:40:51;;;;;;;0.30;0.30;;;21.00;47.60;;;;;;5016831;28;20429;-72
2022/09/19 08:43:57;;;;;;;0.30;0.30;;;21.70;47.20;;;;;;5011278;28;20411;-72
2022/09/19 08:46:35;;;;;;;0.30;0.30;;;22.60;44.50;;;;;;5017093;28;20841;-73
2022/09/19 08:49:20;;;;;;;0.30;0.30;;;23.70;45.40;;;;;;5017017;28;20404;-72
2022/09/19 08:52:12;;;;;;;0.30;0.30;;;24.60;42.10;;;;;;5016727;28;20403;-72
2022/09/19 08:54:47;;;;;;;1.23;0.50;;;25.00;39.50;;;;;;5016953;28;20756;-72
2022/09/19 08:57:31;;;;;;;0.40;0.40;;;25.00;38.30;;;;;;5015397;28;20989;-73
2022/09/19 09:00:02;;;;;;;0.30;0.30;;;24.60;37.70;;;;;;5016464;28;20437;-72
2022/09/19 09:02:58;;;;;;;0.30;0.30;;;24.40;37.90;;;;;;5016585;28;20390;-73
2022/09/19 09:05:56;;;;;;;0.30;0.30;;;24.90;38.50;;;;;;5016811;28;20394;-73
2022/09/19 09:08:59;;;;;;;0.30;0.30;;;26.50;37.90;;;;;;5016668;28;20459;-72
2022/09/19 09:12:14;;;;;;;0.40;0.40;;;28.00;36.30;;;;;;5016248;28;20413;-71
2022/09/19 09:15:13;;;;;;;0.40;0.40;;;28.80;32.80;;;;;;5010214;28;20446;-73
2022/09/19 09:17:57;;;;;;;0.30;0.30;;;28.50;31.60;;;;;;5016280;28;20782;-72
2022/09/19 09:20:27;;;;;;;0.30;0.30;;;29.10;33.50;;;;;;5016094;28;20441;-68
2022/09/19 09:23:28;;;;;;;0.30;0.30;;;29.60;31.80;;;;;;5016489;28;20434;-70
2022/09/19 09:26:00;;;;;;;0.30;0.30;;;30.00;31.80;;;;;;5002523;28;20464;-70
2022/09/19 09:28:47;;;;;;;0.30;0.30;;;30.40;31.90;;;;;;5016287;28;20430;-70
2022/09/19 09:31:25;;;;;;;0.30;0.30;;;30.50;32.20;;;;;;5015799;28;20442;-69
2022/09/19 09:34:07;;;;;;;0.30;0.30;;;30.00;28.60;;;;;;5015515;28;20409;-69
2022/09/19 09:36:48;;;;;;;0.30;0.30;;;29.60;30.60;;;;;;5016031;28;20484;-69
2022/09/19 09:39:21;;;;;;;0.30;0.30;;;28.90;30.40;;;;;;5016055;28;20896;-69
2022/09/19 09:41:57;;;;;;;0.30;0.30;;;28.50;29.40;;;;;;5014619;28;20869;-68
2022/09/19 09:44:31;;;;;;;0.40;0.40;;;28.30;27.90;;;;;;5016094;28;20406;-68
2022/09/19 09:47:32;;;;;;;0.30;0.30;;;28.00;27.70;;;;;;5016042;28;20410;-69
2022/09/19 09:50:13;;;;;;;0.40;0.40;;;27.80;27.60;;;;;;5015443;28;20427;-69
2022/09/19 09:53:00;;;;;;;0.50;0.40;;;27.60;30.90;;;;;;5015908;28;20406;-69
2022/09/19 09:58:32;;;;;;;0.40;0.40;;;28.40;33.20;;;;;;5015627;28;20457;-68
2022/09/19 10:04:45;;;;;;;0.40;0.40;;;28.00;30.00;;;;;;4939277;28;20401;-68
2022/09/19 10:07:42;;;;;;;0.37;0.37;;;27.70;27.80;;;;;;5015276;28;20406;-69
2022/09/19 10:10:14;;;;;;;0.30;0.30;;;26.30;29.60;;;;;;5014372;28;20813;-70
2022/09/19 10:12:46;;;;;;;0.30;0.30;;;25.50;30.80;;;;;;5015512;28;20418;-69
2022/09/19 10:15:19;;;;;;;0.30;0.30;;;25.60;32.30;;;;;;5015143;28;20942;-69
2022/09/19 10:18:18;;;;;;;0.50;0.50;;;25.60;30.70;;;;;;5014070;28;20459;-70
2022/09/19 10:20:51;;;;;;;0.30;0.30;;;25.80;30.60;;;;;;5011517;28;20544;-69
2022/09/19 10:23:25;;;;;;;0.40;0.40;;;25.90;31.80;;;;;;5015273;28;20373;-68
2022/09/19 10:25:59;;;;;;;0.30;0.30;;;25.50;29.00;;;;;;5015032;28;20414;-69
2022/09/19 10:28:37;;;;;;;0.30;0.30;;;25.00;29.20;;;;;;5015167;28;20389;-68
2022/09/19 10:31:04;;;;;;;2.10;0.40;;;25.00;30.40;;;;;;5014768;28;20471;-69
2022/09/19 10:33:44;;;;;;;0.30;0.30;;;24.90;32.20;;;;;;5015044;28;20387;-69
2022/09/19 10:36:26;;;;;;;0.30;0.30;;;24.70;31.70;;;;;;5015306;28;20404;-70
2022/09/19 10:38:59;;;;;;;0.30;0.30;;;24.50;33.60;;;;;;5014756;28;20436;-69
2022/09/19 10:41:27;;;;;;;0.30;0.30;;;24.00;33.40;;;;;;5014709;28;20934;-69
2022/09/19 10:44:02;;;;;;;0.30;0.30;;;23.30;33.50;;;;;;5014756;28;20384;-69
2022/09/19 10:46:38;;;;;;;0.30;0.30;;;22.80;35.70;;;;;;5013263;28;20418;-69
2022/09/19 10:49:20;;;;;;;0.30;0.30;;;22.60;33.50;;;;;;5012817;28;20527;-68
2022/09/19 10:51:48;;;;;;;0.67;0.50;;;22.60;36.60;;;;;;5013244;28;20503;-68
2022/09/19 10:54:40;;;;;;;0.40;0.40;;;22.10;34.50;;;;;;5011096;28;20412;-69
2022/09/19 10:57:34;;;;;;;0.87;0.50;;;21.40;35.30;;;;;;5014618;28;20552;-68
2022/09/19 11:00:04;;;;;;;0.30;0.30;;;20.60;35.50;;;;;;5012490;28;20437;-67
2022/09/19 11:02:30;;;;;;;0.30;0.30;;;19.90;37.90;;;;;;5012171;28;20848;-67
2022/09/19 11:05:07;;;;;;;0.30;0.30;;;19.20;37.20;;;;;;5014518;28;20459;-67
2022/09/19 11:07:48;;;;;;;0.30;0.30;;;18.70;41.50;;;;;;5014569;28;20179;-69
2022/09/19 11:10:41;;;;;;;0.40;0.40;;;18.30;44.80;;;;;;5013989;28;20462;-71
2022/09/19 11:13:15;;;;;;;0.30;0.30;;;17.80;44.50;;;;;;5009450;28;20418;-70
2022/09/19 11:16:22;;;;;;;0.30;0.30;;;17.30;43.90;;;;;;5013791;28;20434;-70
2022/09/19 11:19:08;;;;;;;0.50;0.50;;;17.10;46.70;;;;;;5013581;28;20446;-71
2022/09/19 11:22:08;;;;;;;0.30;0.30;;;17.00;49.50;;;;;;5014170;28;20421;-71
2022/09/19 11:24:46;;;;;;;0.30;0.30;;;17.20;49.20;;;;;;4983517;28;20407;-70
2022/09/19 11:27:36;;;;;;;0.30;0.30;;;17.30;49.90;;;;;;5014173;28;20477;-71
2022/09/19 11:30:26;;;;;;;0.30;0.30;;;17.40;46.90;;;;;;5013858;28;20772;-70
2022/09/19 11:33:06;;;;;;;0.30;0.30;;;17.30;45.60;;;;;;5014218;28;20441;-70
2022/09/19 11:35:55;;;;;;;0.30;0.30;;;17.20;46.20;;;;;;5013988;28;20441;-71
2022/09/19 11:38:51;;;;;;;0.40;0.40;;;17.20;46.90;;;;;;5001622;28;20466;-69
2022/09/19 11:41:32;;;;;;;0.30;0.30;;;17.20;48.30;;;;;;5013752;28;20494;-70
2022/09/19 11:44:15;;;;;;;0.40;0.40;;;17.50;46.40;;;;;;5013820;28;20390;-70
2022/09/19 11:47:07;;;;;;;0.30;0.30;;;17.70;46.00;;;;;;5013975;28;20417;-70
2022/09/19 11:50:05;;;;;;;0.50;0.50;;;17.90;46.60;;;;;;4978377;28;20500;-71
2022/09/19 11:52:31;;;;;;;0.30;0.30;;;18.00;45.80;;;;;;5013897;28;20395;-71
2022/09/19 11:55:22;;;;;;;0.30;0.30;;;17.80;45.00;;;;;;5015138;28;20406;-70
2022/09/19 11:57:54;;;;;;;0.40;0.40;;;17.50;46.40;;;;;;5020544;28;20195;-69
2022/09/19 12:00:23;;;;;;;0.40;0.40;;;17.30;46.70;;;;;;5019977;28;20422;-70
2022/09/19 12:03:14;;;;;;;0.40;0.40;;;17.40;47.90;;;;;;5020245;28;20398;-71
2022/09/19 12:05:46;;;;;;;0.30;0.30;;;17.70;46.70;;;;;;5020345;28;20805;-70
2022/09/19 12:08:33;;;;;;;0.40;0.40;;;17.80;46.50;;;;;;5020325;28;20821;-70
2022/09/19 12:11:09;;;;;;;0.30;0.30;;;17.90;50.40;;;;;;5020197;28;20446;-71
2022/09/19 12:13:44;;;;;;;0.40;0.40;;;18.00;49.70;;;;;;5020128;28;20484;-70
2022/09/19 12:16:24;;;;;;;0.60;0.57;;;18.00;49.80;;;;;;5020513;28;20903;-70
2022/09/19 12:19:33;;;;;;;0.70;0.70;;;18.20;51.70;;;;;;5018601;28;20520;-70
2022/09/19 12:22:06;;;;;;;0.30;0.30;;;17.90;48.70;;;;;;4978056;28;20410;-70
2022/09/19 12:24:52;;;;;;;0.50;0.50;;;17.50;49.70;;;;;;5020631;28;20387;-71
2022/09/19 12:27:36;;;;;;;0.30;0.30;;;17.60;48.50;;;;;;5020179;28;20395;-69
2022/09/19 12:30:23;;;;;;;0.30;0.30;;;17.90;49.80;;;;;;5019800;28;20930;-70
2022/09/19 12:33:07;;;;;;;0.40;0.40;;;17.90;47.20;;;;;;5020103;28;20404;-71
2022/09/19 12:35:43;;;;;;;1.00;0.83;;;18.00;47.50;;;;;;5020150;28;20390;-71
2022/09/19 12:38:33;;;;;;;0.30;0.30;;;18.00;46.80;;;;;;5020033;28;20449;-70
2022/09/19 12:41:36;;;;;;;0.40;0.40;;;17.90;45.70;;;;;;5019645;28;20410;-70
2022/09/19 12:44:28;;;;;;;0.30;0.30;;;17.80;46.00;;;;;;5019824;28;20448;-70
2022/09/19 12:47:34;;;;;;;0.30;0.30;;;17.80;47.80;;;;;;5019824;28;20895;-69
2022/09/19 12:50:27;;;;;;;0.40;0.40;;;17.80;45.70;;;;;;5019519;28;20429;-69
2022/09/19 12:53:36;;;;;;;0.30;0.30;;;18.00;45.80;;;;;;5019422;28;20406;-70
2022/09/19 12:56:20;;;;;;;0.30;0.30;;;18.00;45.40;;;;;;4940011;29;20930;-69
2022/09/19 12:59:05;;;;;;;0.40;0.40;;;18.10;45.50;;;;;;4940191;29;20444;-69
2022/09/19 13:01:39;;;;;;;0.97;0.97;;;18.10;45.60;;;;;;4999752;28;20417;-70
2022/09/19 13:04:25;;;;;;;0.40;0.40;;;18.40;46.60;;;;;;5019706;28;20407;-70
2022/09/19 13:06:55;;;;;;;0.40;0.40;;;18.70;45.10;;;;;;5018532;28;20409;-71
2022/09/19 13:09:37;;;;;;;0.40;0.40;;;18.90;45.30;;;;;;5016553;28;20418;-69
2022/09/19 13:12:15;;;;;;;0.30;0.30;;;18.90;43.70;;;;;;5016562;28;20485;-70
2022/09/19 13:14:50;;;;;;;0.30;0.30;;;18.70;42.10;;;;;;5016453;28;20834;-71
2022/09/19 13:25:38;;;;;;;0.30;0.30;;;17.80;48.20;;;;;;5016316;28;20398;-71
2022/09/19 13:28:21;;;;;;;0.37;0.37;;;17.50;49.30;;;;;;5016388;28;20437;-70
2022/09/19 13:30:50;;;;;;;0.30;0.30;;;17.20;49.80;;;;;;5015841;28;21038;-69
2022/09/19 13:33:35;;;;;;;0.30;0.30;;;16.90;51.80;;;;;;5016476;28;20479;-71
2022/09/19 13:36:09;;;;;;;0.50;0.50;;;16.70;52.60;;;;;;5016122;28;20399;-69
2022/09/19 13:38:49;;;;;;;0.40;0.40;;;16.00;58.70;;;;;;5015944;28;20454;-71
2022/09/19 13:41:30;;;;;;;0.40;0.40;;;16.10;55.10;;;;;;5015616;28;20420;-71
2022/09/19 13:43:56;;;;;;;0.73;0.73;;;16.20;55.20;;;;;;5016075;28;20398;-69
2022/09/19 13:46:37;;;;;;;0.40;0.40;;;16.30;55.40;;;;;;5015907;28;20402;-71
2022/09/19 13:49:18;;;;;;;0.30;0.30;;;16.30;54.20;;;;;;5015677;28;20188;-69